»·PEaware :: AAL225 KSAN-KLAS

AAL225 :: KSAN-KLAS

FLIGHT INFORMATION

Flight Status: Arrived
Operator:
American Airlines
More flights by this operator :: More flights under this callsign
Pilot: Michael R. (16974)
Aircraft: AIRBUS A320
(A320)
More flights by this aircraft type
Origin: KSAN San Diego Intl-Lindbergh
United States
Destination: KLAS McCarran Intl
United States
More flights between these airports :: More routes between these airports
Route: PADRZ2 CHKNN SEBBY YELAH MISEN KEPEC6
File this flight plan on PilotEdge
Remarks:
Altitude:
(Current/Filed)
29,000ft
Speed:
(Current/Filed)
438kts
Departed: 09-Aug-18 09:09 PM
Arrived: 09-Aug-18 10:03 PM
Distance/Time
Traveled:
225nm/0:54
Distance/Time
To Go:
Arrived

Flight Plot

Page will automatically refresh every two minutes.

Flight plan parsing failed; only flown route is shown


Map Options




Map Legend


Flown Route
Filed Route
Departure Airport
Arrival Airport
Navaid (VOR, NDB)
Fix

Horizontal Profiles

Position Reports

Time Latitude Longitude Heading Altitude Ground
Speed
09-Aug-18 20:38 32.733360 -117.199074 116 26ft 0kts
09-Aug-18 20:39 32.733360 -117.199074 116 26ft 0kts
09-Aug-18 20:40 32.733360 -117.199074 116 26ft 0kts
09-Aug-18 20:41 32.733360 -117.199074 116 26ft 0kts
09-Aug-18 20:42 32.733361 -117.199074 116 26ft 0kts
09-Aug-18 20:43 32.733361 -117.199074 116 26ft 0kts
09-Aug-18 20:44 32.733361 -117.199074 116 26ft 0kts
09-Aug-18 20:45 32.733361 -117.199074 116 26ft 0kts
09-Aug-18 20:46 32.733361 -117.199074 116 26ft 0kts
09-Aug-18 20:47 32.733361 -117.199074 116 26ft 0kts
09-Aug-18 20:48 32.733361 -117.199074 116 26ft 0kts
09-Aug-18 20:49 32.733361 -117.199074 116 26ft 0kts
09-Aug-18 20:50 32.733361 -117.199074 116 26ft 0kts
09-Aug-18 20:51 32.733361 -117.199074 116 26ft 0kts
09-Aug-18 20:52 32.733361 -117.199074 116 26ft 0kts
09-Aug-18 20:53 32.733361 -117.199074 116 26ft 0kts
09-Aug-18 20:54 32.733361 -117.199074 116 26ft 0kts
09-Aug-18 20:55 32.733361 -117.199074 116 26ft 0kts
09-Aug-18 20:56 32.733361 -117.199074 116 26ft 0kts
09-Aug-18 20:57 32.733361 -117.199074 116 26ft 0kts
09-Aug-18 20:58 32.733361 -117.199074 116 26ft 0kts
09-Aug-18 20:59 32.733361 -117.199074 116 26ft 0kts
09-Aug-18 21:00 32.733365 -117.199086 116 26ft 1kts
09-Aug-18 21:01 32.733567 -117.199646 77 26ft 2kts
09-Aug-18 21:02 32.733254 -117.199864 13 26ft 0kts
09-Aug-18 21:03 32.733254 -117.199864 13 26ft 0kts
09-Aug-18 21:05 32.734255 -117.199604 14 26ft 0kts
09-Aug-18 21:06 32.734542 -117.197927 106 26ft 21kts
09-Aug-18 21:07 32.732275 -117.188611 106 26ft 29kts
09-Aug-18 21:08 32.730125 -117.179801 106 26ft 11kts
09-Aug-18 21:09 32.729843 -117.175920 27 26ft 12kts
09-Aug-18 21:10 32.735468 -117.197277 286 209ft 173kts
09-Aug-18 21:11 32.762609 -117.255274 303 3207ft 234kts
09-Aug-18 21:12 32.804832 -117.327478 307 6337ft 285kts
09-Aug-18 21:13 32.851018 -117.398437 307 9696ft 302kts
09-Aug-18 21:14 32.906376 -117.484160 308 11762ft 363kts
09-Aug-18 21:15 32.968944 -117.581582 307 14552ft 375kts
09-Aug-18 21:16 33.032970 -117.681639 306 16304ft 389kts
09-Aug-18 21:17 33.105598 -117.772121 321 18812ft 392kts
09-Aug-18 21:18 33.188790 -117.856784 320 20960ft 401kts
09-Aug-18 21:19 33.275950 -117.942102 322 22910ft 410kts
09-Aug-18 21:20 33.364636 -118.028727 321 24656ft 418kts
09-Aug-18 21:21 33.455248 -118.117550 321 26246ft 426kts
09-Aug-18 21:22 33.547707 -118.208450 321 27669ft 434kts
09-Aug-18 21:23 33.654267 -118.274357 346 28908ft 440kts
09-Aug-18 21:24 33.773470 -118.260020 23 28995ft 441kts
09-Aug-18 21:25 33.862957 -118.160729 52 28991ft 448kts
09-Aug-18 21:26 33.935301 -118.038872 52 28985ft 448kts
09-Aug-18 21:27 34.007628 -117.916474 52 29024ft 449kts
09-Aug-18 21:28 34.079920 -117.793680 52 29065ft 451kts
09-Aug-18 21:29 34.158464 -117.676662 48 29069ft 450kts
09-Aug-18 21:30 34.237976 -117.560212 48 29078ft 450kts
09-Aug-18 21:31 34.317403 -117.443525 48 29086ft 450kts
09-Aug-18 21:32 34.396138 -117.327484 49 29093ft 448kts
09-Aug-18 21:33 34.474792 -117.211178 48 29062ft 447kts
09-Aug-18 21:34 34.553476 -117.094444 48 29065ft 447kts
09-Aug-18 21:35 34.631954 -116.977626 48 29006ft 449kts
09-Aug-18 21:36 34.711275 -116.859158 48 28965ft 454kts
09-Aug-18 21:37 34.791037 -116.739633 48 29020ft 458kts
09-Aug-18 21:38 34.874294 -116.625262 36 28691ft 435kts
09-Aug-18 21:39 34.966336 -116.536190 37 27007ft 417kts
09-Aug-18 21:40 35.055056 -116.449991 38 25038ft 403kts
09-Aug-18 21:41 35.136203 -116.361613 45 23321ft 383kts
09-Aug-18 21:42 35.208466 -116.271112 45 21897ft 368kts
09-Aug-18 21:43 35.279062 -116.182438 45 20511ft 360kts
09-Aug-18 21:44 35.347900 -116.095745 45 19164ft 352kts
09-Aug-18 21:45 35.415186 -116.010794 45 17852ft 345kts
09-Aug-18 21:46 35.481326 -115.927080 45 16568ft 338kts
09-Aug-18 21:47 35.545964 -115.845060 45 15306ft 332kts
09-Aug-18 21:48 35.599138 -115.777438 45 14271ft 328kts
09-Aug-18 21:49 35.671552 -115.685128 45 13083ft 311kts
09-Aug-18 21:50 35.721975 -115.620710 45 13047ft 313kts
09-Aug-18 21:51 35.809470 -115.572385 1 13045ft 311kts
09-Aug-18 21:52 35.881112 -115.565548 20 13033ft 313kts
09-Aug-18 21:53 35.938597 -115.466856 63 11950ft 310kts
09-Aug-18 21:54 35.961145 -115.383504 72 10923ft 304kts
09-Aug-18 21:55 35.971619 -115.283896 92 9695ft 290kts
09-Aug-18 21:56 35.967326 -115.186262 92 8451ft 281kts
09-Aug-18 21:57 35.983308 -115.097819 31 7054ft 277kts
09-Aug-18 21:58 36.051889 -115.057613 22 5767ft 270kts
09-Aug-18 21:59 36.120057 -115.020982 21 4989ft 255kts
09-Aug-18 22:00 36.171851 -115.055972 293 4825ft 236kts
09-Aug-18 22:01 36.176144 -115.126215 214 3983ft 205kts
09-Aug-18 22:02 36.124605 -115.137758 207 2854ft 168kts
09-Aug-18 22:03 36.089197 -115.158944 206 2190ft 88kts
09-Aug-18 22:04 36.082644 -115.161061 150 2190ft 0kts
09-Aug-18 22:05 36.080743 -115.161548 207 2190ft 14kts
09-Aug-18 22:06 36.078030 -115.160058 90 2190ft 19kts
09-Aug-18 22:07 36.078210 -115.152072 44 2190ft 20kts
09-Aug-18 22:08 36.082372 -115.150272 313 2190ft 10kts
09-Aug-18 22:09 36.082510 -115.150455 313 2190ft 0kts
09-Aug-18 22:10 36.082510 -115.150455 313 2190ft 0kts
09-Aug-18 22:11 36.082510 -115.150455 313 2190ft 0kts
09-Aug-18 22:12 36.082510 -115.150455 313 2190ft 0kts
09-Aug-18 22:13 36.080872 -115.138500 314 2193ft 0kts
09-Aug-18 22:14 36.080873 -115.138501 314 2193ft 0kts
09-Aug-18 22:15 36.080877 -115.138506 314 2193ft 0kts
09-Aug-18 22:16 36.080872 -115.138500 314 2193ft 0kts

Navigation Log

Ident Type
Flight plan parsing failed, navigation log unavailable